sensor_id;sensor_type;location;lat;lon;timestamp;P1;durP1;ratioP1;P2;durP2;ratioP2
8683;SDS011;4379;59.744;18.206;2023-08-21T00:02:00;4.18;;;3.97;;
8683;SDS011;4379;59.744;18.206;2023-08-21T00:04:28;3.80;;;3.70;;
8683;SDS011;4379;59.744;18.206;2023-08-21T00:06:55;4.40;;;4.05;;
8683;SDS011;4379;59.744;18.206;2023-08-21T00:09:23;4.30;;;4.00;;
8683;SDS011;4379;59.744;18.206;2023-08-21T00:11:50;4.35;;;4.15;;
8683;SDS011;4379;59.744;18.206;2023-08-21T00:14:18;3.97;;;3.80;;
8683;SDS011;4379;59.744;18.206;2023-08-21T00:16:45;3.50;;;3.40;;
8683;SDS011;4379;59.744;18.206;2023-08-21T00:19:13;3.83;;;3.63;;
8683;SDS011;4379;59.744;18.206;2023-08-21T00:21:40;4.38;;;4.18;;
8683;SDS011;4379;59.744;18.206;2023-08-21T00:24:07;4.07;;;3.78;;
8683;SDS011;4379;59.744;18.206;2023-08-21T00:26:35;3.90;;;3.70;;
8683;SDS011;4379;59.744;18.206;2023-08-21T00:29:02;4.00;;;3.70;;
8683;SDS011;4379;59.744;18.206;2023-08-21T00:31:30;3.50;;;3.40;;
8683;SDS011;4379;59.744;18.206;2023-08-21T00:33:58;3.95;;;3.65;;
8683;SDS011;4379;59.744;18.206;2023-08-21T00:36:25;3.38;;;3.28;;
8683;SDS011;4379;59.744;18.206;2023-08-21T00:38:52;4.28;;;4.07;;
8683;SDS011;4379;59.744;18.206;2023-08-21T00:41:19;3.58;;;3.47;;
8683;SDS011;4379;59.744;18.206;2023-08-21T00:43:47;3.63;;;3.50;;
8683;SDS011;4379;59.744;18.206;2023-08-21T00:46:14;4.00;;;3.80;;
8683;SDS011;4379;59.744;18.206;2023-08-21T00:48:46;4.13;;;3.95;;
8683;SDS011;4379;59.744;18.206;2023-08-21T00:51:14;4.45;;;4.15;;
8683;SDS011;4379;59.744;18.206;2023-08-21T00:53:42;4.38;;;4.18;;
8683;SDS011;4379;59.744;18.206;2023-08-21T00:56:11;5.45;;;5.10;;
8683;SDS011;4379;59.744;18.206;2023-08-21T00:58:39;6.07;;;5.68;;
8683;SDS011;4379;59.744;18.206;2023-08-21T01:01:06;7.53;;;6.78;;
8683;SDS011;4379;59.744;18.206;2023-08-21T01:03:34;6.50;;;6.05;;
8683;SDS011;4379;59.744;18.206;2023-08-21T01:06:01;8.13;;;7.60;;
8683;SDS011;4379;59.744;18.206;2023-08-21T01:08:43;7.50;;;7.07;;
8683;SDS011;4379;59.744;18.206;2023-08-21T01:14:15;6.45;;;6.15;;
8683;SDS011;4379;59.744;18.206;2023-08-21T01:16:53;7.13;;;6.72;;
8683;SDS011;4379;59.744;18.206;2023-08-21T01:19:47;6.72;;;6.43;;
8683;SDS011;4379;59.744;18.206;2023-08-21T01:22:16;8.30;;;7.60;;
8683;SDS011;4379;59.744;18.206;2023-08-21T01:24:43;7.85;;;7.45;;
8683;SDS011;4379;59.744;18.206;2023-08-21T01:27:10;7.50;;;7.10;;
8683;SDS011;4379;59.744;18.206;2023-08-21T01:29:40;5.90;;;5.60;;
8683;SDS011;4379;59.744;18.206;2023-08-21T01:32:21;6.30;;;5.90;;
8683;SDS011;4379;59.744;18.206;2023-08-21T01:34:58;7.30;;;6.90;;
8683;SDS011;4379;59.744;18.206;2023-08-21T01:37:26;8.80;;;8.15;;
8683;SDS011;4379;59.744;18.206;2023-08-21T01:39:57;8.85;;;7.88;;
8683;SDS011;4379;59.744;18.206;2023-08-21T01:42:25;8.15;;;7.72;;
8683;SDS011;4379;59.744;18.206;2023-08-21T01:44:52;7.97;;;7.57;;
8683;SDS011;4379;59.744;18.206;2023-08-21T01:47:19;8.18;;;7.65;;
8683;SDS011;4379;59.744;18.206;2023-08-21T01:49:47;7.97;;;7.25;;
8683;SDS011;4379;59.744;18.206;2023-08-21T01:52:15;10.77;;;8.77;;
8683;SDS011;4379;59.744;18.206;2023-08-21T01:54:42;13.07;;;8.90;;
8683;SDS011;4379;59.744;18.206;2023-08-21T01:57:09;11.80;;;9.38;;
8683;SDS011;4379;59.744;18.206;2023-08-21T01:59:37;9.45;;;8.93;;
8683;SDS011;4379;59.744;18.206;2023-08-21T02:02:04;9.18;;;8.68;;
8683;SDS011;4379;59.744;18.206;2023-08-21T02:04:32;10.00;;;9.40;;
8683;SDS011;4379;59.744;18.206;2023-08-21T02:06:59;10.00;;;9.45;;
8683;SDS011;4379;59.744;18.206;2023-08-21T02:09:27;10.27;;;9.70;;
8683;SDS011;4379;59.744;18.206;2023-08-21T02:11:54;10.07;;;9.57;;
8683;SDS011;4379;59.744;18.206;2023-08-21T02:14:22;10.23;;;9.60;;
8683;SDS011;4379;59.744;18.206;2023-08-21T02:16:49;10.07;;;9.50;;
8683;SDS011;4379;59.744;18.206;2023-08-21T02:19:16;11.05;;;10.35;;
8683;SDS011;4379;59.744;18.206;2023-08-21T02:21:43;10.48;;;9.88;;
8683;SDS011;4379;59.744;18.206;2023-08-21T02:24:12;10.77;;;10.18;;
8683;SDS011;4379;59.744;18.206;2023-08-21T02:26:39;11.30;;;10.60;;
8683;SDS011;4379;59.744;18.206;2023-08-21T02:29:09;10.15;;;9.52;;
8683;SDS011;4379;59.744;18.206;2023-08-21T02:31:36;11.60;;;10.70;;
8683;SDS011;4379;59.744;18.206;2023-08-21T02:34:03;10.57;;;9.73;;
8683;SDS011;4379;59.744;18.206;2023-08-21T02:36:32;11.35;;;10.65;;
8683;SDS011;4379;59.744;18.206;2023-08-21T02:38:59;10.75;;;10.02;;
8683;SDS011;4379;59.744;18.206;2023-08-21T02:41:26;11.43;;;10.63;;
8683;SDS011;4379;59.744;18.206;2023-08-21T02:43:54;12.57;;;11.23;;
8683;SDS011;4379;59.744;18.206;2023-08-21T02:46:21;12.23;;;11.20;;
8683;SDS011;4379;59.744;18.206;2023-08-21T02:48:49;12.05;;;10.50;;
8683;SDS011;4379;59.744;18.206;2023-08-21T02:51:16;18.95;;;11.80;;
8683;SDS011;4379;59.744;18.206;2023-08-21T02:53:44;18.95;;;13.10;;
8683;SDS011;4379;59.744;18.206;2023-08-21T02:56:11;26.85;;;11.82;;
8683;SDS011;4379;59.744;18.206;2023-08-21T02:58:39;25.50;;;12.57;;
8683;SDS011;4379;59.744;18.206;2023-08-21T03:01:06;16.02;;;12.13;;
8683;SDS011;4379;59.744;18.206;2023-08-21T03:03:34;23.65;;;13.48;;
8683;SDS011;4379;59.744;18.206;2023-08-21T03:06:02;13.90;;;11.50;;
8683;SDS011;4379;59.744;18.206;2023-08-21T03:08:31;15.95;;;13.15;;
8683;SDS011;4379;59.744;18.206;2023-08-21T03:10:59;13.98;;;12.70;;
8683;SDS011;4379;59.744;18.206;2023-08-21T03:13:26;15.90;;;13.38;;
8683;SDS011;4379;59.744;18.206;2023-08-21T03:15:53;45.80;;;16.85;;
8683;SDS011;4379;59.744;18.206;2023-08-21T03:18:21;13.85;;;12.55;;
8683;SDS011;4379;59.744;18.206;2023-08-21T03:20:48;15.68;;;12.50;;
8683;SDS011;4379;59.744;18.206;2023-08-21T03:23:16;14.27;;;12.93;;
8683;SDS011;4379;59.744;18.206;2023-08-21T03:25:43;13.80;;;12.52;;
8683;SDS011;4379;59.744;18.206;2023-08-21T03:28:11;12.27;;;11.27;;
8683;SDS011;4379;59.744;18.206;2023-08-21T03:30:39;12.85;;;11.80;;
8683;SDS011;4379;59.744;18.206;2023-08-21T03:33:07;12.27;;;11.25;;
8683;SDS011;4379;59.744;18.206;2023-08-21T03:35:35;12.65;;;11.63;;
8683;SDS011;4379;59.744;18.206;2023-08-21T03:38:02;11.93;;;10.98;;
8683;SDS011;4379;59.744;18.206;2023-08-21T03:40:30;12.63;;;11.52;;
8683;SDS011;4379;59.744;18.206;2023-08-21T03:42:58;12.43;;;11.32;;
8683;SDS011;4379;59.744;18.206;2023-08-21T03:45:25;12.82;;;11.68;;
8683;SDS011;4379;59.744;18.206;2023-08-21T03:47:52;12.40;;;11.40;;
8683;SDS011;4379;59.744;18.206;2023-08-21T03:50:20;12.50;;;11.43;;
8683;SDS011;4379;59.744;18.206;2023-08-21T03:52:47;12.68;;;11.48;;
8683;SDS011;4379;59.744;18.206;2023-08-21T03:55:15;13.15;;;12.00;;
8683;SDS011;4379;59.744;18.206;2023-08-21T03:57:42;11.80;;;11.00;;
8683;SDS011;4379;59.744;18.206;2023-08-21T04:00:10;12.13;;;11.35;;
8683;SDS011;4379;59.744;18.206;2023-08-21T04:02:38;11.38;;;10.57;;
8683;SDS011;4379;59.744;18.206;2023-08-21T04:05:06;11.65;;;10.65;;
8683;SDS011;4379;59.744;18.206;2023-08-21T04:07:34;12.20;;;10.98;;
8683;SDS011;4379;59.744;18.206;2023-08-21T04:10:01;11.13;;;10.13;;
8683;SDS011;4379;59.744;18.206;2023-08-21T04:12:29;11.75;;;10.90;;
8683;SDS011;4379;59.744;18.206;2023-08-21T04:14:56;11.05;;;10.20;;
8683;SDS011;4379;59.744;18.206;2023-08-21T04:17:24;12.93;;;11.82;;
8683;SDS011;4379;59.744;18.206;2023-08-21T04:19:52;14.02;;;12.52;;
8683;SDS011;4379;59.744;18.206;2023-08-21T04:22:19;12.32;;;11.40;;
8683;SDS011;4379;59.744;18.206;2023-08-21T04:24:47;11.65;;;10.68;;
8683;SDS011;4379;59.744;18.206;2023-08-21T04:27:15;11.27;;;10.48;;
8683;SDS011;4379;59.744;18.206;2023-08-21T04:29:42;12.63;;;11.50;;
8683;SDS011;4379;59.744;18.206;2023-08-21T04:32:09;11.27;;;10.43;;
8683;SDS011;4379;59.744;18.206;2023-08-21T04:34:37;11.45;;;10.75;;
8683;SDS011;4379;59.744;18.206;2023-08-21T04:37:04;12.38;;;11.20;;
8683;SDS011;4379;59.744;18.206;2023-08-21T04:39:32;12.27;;;11.43;;
8683;SDS011;4379;59.744;18.206;2023-08-21T04:41:59;10.55;;;9.85;;
8683;SDS011;4379;59.744;18.206;2023-08-21T04:44:26;11.35;;;10.63;;
8683;SDS011;4379;59.744;18.206;2023-08-21T04:46:54;11.55;;;10.60;;
8683;SDS011;4379;59.744;18.206;2023-08-21T04:49:21;10.68;;;9.88;;
8683;SDS011;4379;59.744;18.206;2023-08-21T04:51:49;11.10;;;10.15;;
8683;SDS011;4379;59.744;18.206;2023-08-21T04:54:16;10.50;;;9.40;;
8683;SDS011;4379;59.744;18.206;2023-08-21T04:56:44;11.00;;;10.13;;
8683;SDS011;4379;59.744;18.206;2023-08-21T04:59:11;10.15;;;9.45;;
8683;SDS011;4379;59.744;18.206;2023-08-21T05:01:38;9.68;;;9.07;;
8683;SDS011;4379;59.744;18.206;2023-08-21T05:04:08;9.68;;;9.05;;
8683;SDS011;4379;59.744;18.206;2023-08-21T05:06:36;8.77;;;8.27;;
8683;SDS011;4379;59.744;18.206;2023-08-21T05:09:03;7.97;;;7.47;;
8683;SDS011;4379;59.744;18.206;2023-08-21T05:11:30;8.20;;;7.78;;
8683;SDS011;4379;59.744;18.206;2023-08-21T05:13:57;8.25;;;7.75;;
8683;SDS011;4379;59.744;18.206;2023-08-21T05:16:28;9.15;;;8.45;;
8683;SDS011;4379;59.744;18.206;2023-08-21T05:18:56;7.97;;;7.55;;
8683;SDS011;4379;59.744;18.206;2023-08-21T05:21:24;9.02;;;8.32;;
8683;SDS011;4379;59.744;18.206;2023-08-21T05:23:51;7.70;;;7.38;;
8683;SDS011;4379;59.744;18.206;2023-08-21T05:26:19;7.75;;;7.05;;
8683;SDS011;4379;59.744;18.206;2023-08-21T05:28:46;8.30;;;7.78;;
8683;SDS011;4379;59.744;18.206;2023-08-21T05:31:14;7.70;;;7.30;;
8683;SDS011;4379;59.744;18.206;2023-08-21T05:33:41;8.10;;;7.65;;
8683;SDS011;4379;59.744;18.206;2023-08-21T05:36:08;8.50;;;7.90;;
8683;SDS011;4379;59.744;18.206;2023-08-21T05:38:36;7.60;;;7.20;;
8683;SDS011;4379;59.744;18.206;2023-08-21T05:41:03;7.13;;;6.68;;
8683;SDS011;4379;59.744;18.206;2023-08-21T05:43:30;6.63;;;6.30;;
8683;SDS011;4379;59.744;18.206;2023-08-21T05:45:58;7.18;;;6.45;;
8683;SDS011;4379;59.744;18.206;2023-08-21T05:48:25;6.40;;;5.80;;
8683;SDS011;4379;59.744;18.206;2023-08-21T05:50:52;6.28;;;5.90;;
8683;SDS011;4379;59.744;18.206;2023-08-21T05:53:20;6.00;;;5.70;;
8683;SDS011;4379;59.744;18.206;2023-08-21T05:55:47;5.60;;;5.30;;
8683;SDS011;4379;59.744;18.206;2023-08-21T05:58:15;5.43;;;5.13;;
8683;SDS011;4379;59.744;18.206;2023-08-21T06:00:42;4.95;;;4.65;;
8683;SDS011;4379;59.744;18.206;2023-08-21T06:03:11;5.60;;;4.70;;
8683;SDS011;4379;59.744;18.206;2023-08-21T06:05:38;4.80;;;4.60;;
8683;SDS011;4379;59.744;18.206;2023-08-21T06:08:06;5.10;;;4.88;;
8683;SDS011;4379;59.744;18.206;2023-08-21T06:10:35;5.15;;;4.85;;
8683;SDS011;4379;59.744;18.206;2023-08-21T06:13:03;4.20;;;4.00;;
8683;SDS011;4379;59.744;18.206;2023-08-21T06:15:30;4.28;;;4.07;;
8683;SDS011;4379;59.744;18.206;2023-08-21T06:17:58;4.40;;;4.00;;
8683;SDS011;4379;59.744;18.206;2023-08-21T06:20:27;4.00;;;3.70;;
8683;SDS011;4379;59.744;18.206;2023-08-21T06:22:54;3.35;;;3.13;;
8683;SDS011;4379;59.744;18.206;2023-08-21T06:25:21;3.55;;;3.35;;
8683;SDS011;4379;59.744;18.206;2023-08-21T06:27:49;3.55;;;3.28;;
8683;SDS011;4379;59.744;18.206;2023-08-21T06:30:27;3.00;;;2.90;;
8683;SDS011;4379;59.744;18.206;2023-08-21T06:32:55;2.83;;;2.70;;
8683;SDS011;4379;59.744;18.206;2023-08-21T06:35:23;3.40;;;3.15;;
8683;SDS011;4379;59.744;18.206;2023-08-21T06:37:50;3.33;;;2.80;;
8683;SDS011;4379;59.744;18.206;2023-08-21T06:40:18;2.85;;;2.65;;
8683;SDS011;4379;59.744;18.206;2023-08-21T06:42:45;2.92;;;2.60;;
8683;SDS011;4379;59.744;18.206;2023-08-21T06:45:12;2.80;;;2.47;;
8683;SDS011;4379;59.744;18.206;2023-08-21T06:47:40;2.70;;;2.50;;
8683;SDS011;4379;59.744;18.206;2023-08-21T06:50:08;2.17;;;2.00;;
8683;SDS011;4379;59.744;18.206;2023-08-21T06:52:35;2.90;;;2.47;;
8683;SDS011;4379;59.744;18.206;2023-08-21T06:55:03;2.50;;;2.40;;
8683;SDS011;4379;59.744;18.206;2023-08-21T06:57:31;2.50;;;2.40;;
8683;SDS011;4379;59.744;18.206;2023-08-21T06:59:59;2.22;;;2.13;;
8683;SDS011;4379;59.744;18.206;2023-08-21T07:02:26;2.67;;;2.45;;
8683;SDS011;4379;59.744;18.206;2023-08-21T07:04:54;2.42;;;2.22;;
8683;SDS011;4379;59.744;18.206;2023-08-21T07:07:21;3.58;;;2.33;;
8683;SDS011;4379;59.744;18.206;2023-08-21T07:09:49;2.60;;;2.40;;
8683;SDS011;4379;59.744;18.206;2023-08-21T07:12:17;2.42;;;2.33;;
8683;SDS011;4379;59.744;18.206;2023-08-21T07:14:45;2.53;;;2.20;;
8683;SDS011;4379;59.744;18.206;2023-08-21T07:17:12;2.95;;;2.75;;
8683;SDS011;4379;59.744;18.206;2023-08-21T07:19:40;2.90;;;2.70;;
8683;SDS011;4379;59.744;18.206;2023-08-21T07:22:09;2.55;;;2.45;;
8683;SDS011;4379;59.744;18.206;2023-08-21T07:24:37;3.67;;;2.78;;
8683;SDS011;4379;59.744;18.206;2023-08-21T07:27:04;3.03;;;2.70;;
8683;SDS011;4379;59.744;18.206;2023-08-21T07:29:32;3.53;;;3.22;;
8683;SDS011;4379;59.744;18.206;2023-08-21T07:32:00;2.83;;;2.63;;
8683;SDS011;4379;59.744;18.206;2023-08-21T07:34:28;2.80;;;2.60;;
8683;SDS011;4379;59.744;18.206;2023-08-21T07:36:56;3.53;;;2.97;;
8683;SDS011;4379;59.744;18.206;2023-08-21T07:39:23;2.92;;;2.70;;
8683;SDS011;4379;59.744;18.206;2023-08-21T07:41:51;2.85;;;2.65;;
8683;SDS011;4379;59.744;18.206;2023-08-21T07:44:19;2.63;;;2.40;;
8683;SDS011;4379;59.744;18.206;2023-08-21T07:46:47;2.90;;;2.47;;
8683;SDS011;4379;59.744;18.206;2023-08-21T07:49:14;2.17;;;2.08;;
8683;SDS011;4379;59.744;18.206;2023-08-21T07:51:42;2.80;;;2.40;;
8683;SDS011;4379;59.744;18.206;2023-08-21T07:54:09;2.58;;;2.38;;
8683;SDS011;4379;59.744;18.206;2023-08-21T07:56:37;2.13;;;2.03;;
8683;SDS011;4379;59.744;18.206;2023-08-21T07:59:06;2.20;;;2.00;;
8683;SDS011;4379;59.744;18.206;2023-08-21T08:01:33;2.40;;;2.20;;
8683;SDS011;4379;59.744;18.206;2023-08-21T08:04:01;2.00;;;1.90;;
8683;SDS011;4379;59.744;18.206;2023-08-21T08:06:29;2.55;;;2.35;;
8683;SDS011;4379;59.744;18.206;2023-08-21T08:08:57;2.42;;;2.33;;
8683;SDS011;4379;59.744;18.206;2023-08-21T08:11:24;2.55;;;2.35;;
8683;SDS011;4379;59.744;18.206;2023-08-21T08:13:51;2.47;;;2.38;;
8683;SDS011;4379;59.744;18.206;2023-08-21T08:16:19;2.08;;;1.98;;
8683;SDS011;4379;59.744;18.206;2023-08-21T08:18:46;5.03;;;2.40;;
8683;SDS011;4379;59.744;18.206;2023-08-21T08:21:15;1.85;;;1.75;;
8683;SDS011;4379;59.744;18.206;2023-08-21T08:23:42;2.67;;;2.47;;
8683;SDS011;4379;59.744;18.206;2023-08-21T08:26:10;2.53;;;2.33;;
8683;SDS011;4379;59.744;18.206;2023-08-21T08:28:37;2.20;;;2.00;;
8683;SDS011;4379;59.744;18.206;2023-08-21T08:31:05;3.65;;;2.20;;
8683;SDS011;4379;59.744;18.206;2023-08-21T08:33:32;2.85;;;2.50;;
8683;SDS011;4379;59.744;18.206;2023-08-21T08:35:59;3.33;;;2.60;;
8683;SDS011;4379;59.744;18.206;2023-08-21T08:38:27;2.33;;;2.22;;
8683;SDS011;4379;59.744;18.206;2023-08-21T08:40:54;2.40;;;2.20;;
8683;SDS011;4379;59.744;18.206;2023-08-21T08:43:24;3.22;;;2.20;;
8683;SDS011;4379;59.744;18.206;2023-08-21T08:45:54;2.78;;;2.40;;
8683;SDS011;4379;59.744;18.206;2023-08-21T08:48:24;2.40;;;2.30;;
8683;SDS011;4379;59.744;18.206;2023-08-21T08:50:53;2.50;;;2.40;;
8683;SDS011;4379;59.744;18.206;2023-08-21T08:53:24;2.50;;;2.30;;
8683;SDS011;4379;59.744;18.206;2023-08-21T08:55:55;2.47;;;2.33;;
8683;SDS011;4379;59.744;18.206;2023-08-21T08:58:24;2.70;;;2.45;;
8683;SDS011;4379;59.744;18.206;2023-08-21T09:00:51;3.50;;;2.40;;
8683;SDS011;4379;59.744;18.206;2023-08-21T09:03:19;2.65;;;2.50;;
8683;SDS011;4379;59.744;18.206;2023-08-21T09:05:47;3.85;;;2.58;;
8683;SDS011;4379;59.744;18.206;2023-08-21T09:08:15;3.55;;;2.75;;
8683;SDS011;4379;59.744;18.206;2023-08-21T09:10:42;3.10;;;2.88;;
8683;SDS011;4379;59.744;18.206;2023-08-21T09:13:15;3.13;;;2.80;;
8683;SDS011;4379;59.744;18.206;2023-08-21T09:15:45;3.30;;;2.78;;
8683;SDS011;4379;59.744;18.206;2023-08-21T09:18:14;2.92;;;2.60;;
8683;SDS011;4379;59.744;18.206;2023-08-21T09:20:42;2.70;;;2.50;;
8683;SDS011;4379;59.744;18.206;2023-08-21T09:23:14;3.80;;;2.20;;
8683;SDS011;4379;59.744;18.206;2023-08-21T09:25:44;2.58;;;2.38;;
8683;SDS011;4379;59.744;18.206;2023-08-21T09:28:20;4.50;;;2.35;;
8683;SDS011;4379;59.744;18.206;2023-08-21T09:30:52;3.30;;;2.28;;
8683;SDS011;4379;59.744;18.206;2023-08-21T09:33:22;2.22;;;2.13;;
8683;SDS011;4379;59.744;18.206;2023-08-21T09:35:53;2.60;;;2.40;;
8683;SDS011;4379;59.744;18.206;2023-08-21T09:38:22;2.10;;;1.98;;
8683;SDS011;4379;59.744;18.206;2023-08-21T09:40:50;2.38;;;2.17;;
8683;SDS011;4379;59.744;18.206;2023-08-21T09:43:20;2.40;;;2.20;;
8683;SDS011;4379;59.744;18.206;2023-08-21T09:45:49;2.85;;;1.90;;
8683;SDS011;4379;59.744;18.206;2023-08-21T09:48:23;2.05;;;1.80;;
8683;SDS011;4379;59.744;18.206;2023-08-21T09:50:56;2.60;;;2.40;;
8683;SDS011;4379;59.744;18.206;2023-08-21T09:53:24;2.47;;;2.15;;
8683;SDS011;4379;59.744;18.206;2023-08-21T09:55:54;2.38;;;2.17;;
8683;SDS011;4379;59.744;18.206;2023-08-21T09:58:23;3.83;;;2.28;;
8683;SDS011;4379;59.744;18.206;2023-08-21T10:00:51;2.67;;;1.85;;
8683;SDS011;4379;59.744;18.206;2023-08-21T10:03:24;2.22;;;1.98;;
8683;SDS011;4379;59.744;18.206;2023-08-21T10:05:54;2.15;;;2.05;;
8683;SDS011;4379;59.744;18.206;2023-08-21T10:08:25;2.92;;;1.77;;
8683;SDS011;4379;59.744;18.206;2023-08-21T10:10:53;2.60;;;2.00;;
8683;SDS011;4379;59.744;18.206;2023-08-21T10:13:21;3.03;;;2.20;;
8683;SDS011;4379;59.744;18.206;2023-08-21T10:15:49;2.25;;;2.05;;
8683;SDS011;4379;59.744;18.206;2023-08-21T10:18:20;2.50;;;1.92;;
8683;SDS011;4379;59.744;18.206;2023-08-21T10:20:51;3.53;;;2.20;;
8683;SDS011;4379;59.744;18.206;2023-08-21T10:23:29;1.70;;;1.60;;
8683;SDS011;4379;59.744;18.206;2023-08-21T10:25:57;1.98;;;1.85;;
8683;SDS011;4379;59.744;18.206;2023-08-21T10:33:55;2.25;;;1.77;;
8683;SDS011;4379;59.744;18.206;2023-08-21T10:41:53;3.42;;;1.92;;
8683;SDS011;4379;59.744;18.206;2023-08-21T10:47:22;2.63;;;2.05;;
8683;SDS011;4379;59.744;18.206;2023-08-21T10:49:58;2.33;;;1.83;;
8683;SDS011;4379;59.744;18.206;2023-08-21T10:52:31;2.53;;;1.60;;
8683;SDS011;4379;59.744;18.206;2023-08-21T10:55:03;3.38;;;1.90;;
8683;SDS011;4379;59.744;18.206;2023-08-21T10:57:31;3.13;;;2.08;;
8683;SDS011;4379;59.744;18.206;2023-08-21T11:02:31;2.35;;;2.15;;
8683;SDS011;4379;59.744;18.206;2023-08-21T11:04:59;2.15;;;1.95;;
8683;SDS011;4379;59.744;18.206;2023-08-21T11:07:27;4.60;;;2.15;;
8683;SDS011;4379;59.744;18.206;2023-08-21T11:09:56;2.95;;;2.10;;
8683;SDS011;4379;59.744;18.206;2023-08-21T11:12:24;2.08;;;1.90;;
8683;SDS011;4379;59.744;18.206;2023-08-21T11:14:51;2.35;;;2.00;;
8683;SDS011;4379;59.744;18.206;2023-08-21T11:17:19;3.70;;;2.20;;
8683;SDS011;4379;59.744;18.206;2023-08-21T11:19:46;2.33;;;2.13;;
8683;SDS011;4379;59.744;18.206;2023-08-21T11:22:18;4.85;;;2.25;;
8683;SDS011;4379;59.744;18.206;2023-08-21T11:24:46;3.95;;;2.00;;
8683;SDS011;4379;59.744;18.206;2023-08-21T11:27:15;2.00;;;1.80;;
8683;SDS011;4379;59.744;18.206;2023-08-21T11:29:50;2.08;;;1.75;;
8683;SDS011;4379;59.744;18.206;2023-08-21T11:32:19;2.88;;;2.00;;
8683;SDS011;4379;59.744;18.206;2023-08-21T11:34:52;1.70;;;1.60;;
8683;SDS011;4379;59.744;18.206;2023-08-21T11:37:21;2.00;;;1.80;;
8683;SDS011;4379;59.744;18.206;2023-08-21T11:39:57;2.28;;;1.55;;
8683;SDS011;4379;59.744;18.206;2023-08-21T11:42:29;1.88;;;1.63;;
8683;SDS011;4379;59.744;18.206;2023-08-21T11:45:00;2.85;;;1.95;;
8683;SDS011;4379;59.744;18.206;2023-08-21T11:47:34;3.10;;;1.80;;
8683;SDS011;4379;59.744;18.206;2023-08-21T11:50:03;1.65;;;1.55;;
8683;SDS011;4379;59.744;18.206;2023-08-21T11:52:33;2.50;;;1.85;;
8683;SDS011;4379;59.744;18.206;2023-08-21T11:55:02;2.33;;;1.63;;
8683;SDS011;4379;59.744;18.206;2023-08-21T11:57:34;2.53;;;1.48;;
8683;SDS011;4379;59.744;18.206;2023-08-21T12:00:02;2.20;;;2.00;;
8683;SDS011;4379;59.744;18.206;2023-08-21T12:02:32;2.10;;;1.63;;
8683;SDS011;4379;59.744;18.206;2023-08-21T12:05:05;2.22;;;2.03;;
8683;SDS011;4379;59.744;18.206;2023-08-21T12:07:34;3.45;;;2.05;;
8683;SDS011;4379;59.744;18.206;2023-08-21T12:10:01;1.70;;;1.60;;
8683;SDS011;4379;59.744;18.206;2023-08-21T12:12:29;2.67;;;1.80;;
8683;SDS011;4379;59.744;18.206;2023-08-21T12:14:56;1.80;;;1.70;;
8683;SDS011;4379;59.744;18.206;2023-08-21T12:17:23;4.28;;;1.77;;
8683;SDS011;4379;59.744;18.206;2023-08-21T12:19:50;2.15;;;1.48;;
8683;SDS011;4379;59.744;18.206;2023-08-21T12:22:18;1.98;;;1.67;;
8683;SDS011;4379;59.744;18.206;2023-08-21T12:24:45;2.45;;;1.45;;
8683;SDS011;4379;59.744;18.206;2023-08-21T12:27:12;3.25;;;1.92;;
8683;SDS011;4379;59.744;18.206;2023-08-21T12:29:42;1.98;;;1.88;;
8683;SDS011;4379;59.744;18.206;2023-08-21T12:32:13;2.03;;;1.67;;
8683;SDS011;4379;59.744;18.206;2023-08-21T12:34:40;1.48;;;1.40;;
8683;SDS011;4379;59.744;18.206;2023-08-21T12:37:08;2.42;;;1.83;;
8683;SDS011;4379;59.744;18.206;2023-08-21T12:39:35;2.55;;;1.70;;
8683;SDS011;4379;59.744;18.206;2023-08-21T12:42:02;2.20;;;1.70;;
8683;SDS011;4379;59.744;18.206;2023-08-21T12:44:31;1.80;;;1.70;;
8683;SDS011;4379;59.744;18.206;2023-08-21T12:47:03;1.98;;;1.88;;
8683;SDS011;4379;59.744;18.206;2023-08-21T12:49:31;1.98;;;1.63;;
8683;SDS011;4379;59.744;18.206;2023-08-21T12:51:58;1.58;;;1.48;;
8683;SDS011;4379;59.744;18.206;2023-08-21T12:54:25;1.70;;;1.60;;
8683;SDS011;4379;59.744;18.206;2023-08-21T12:56:53;2.05;;;1.50;;
8683;SDS011;4379;59.744;18.206;2023-08-21T12:59:20;1.65;;;1.40;;
8683;SDS011;4379;59.744;18.206;2023-08-21T13:01:48;2.30;;;1.50;;
8683;SDS011;4379;59.744;18.206;2023-08-21T13:04:15;1.40;;;1.30;;
8683;SDS011;4379;59.744;18.206;2023-08-21T13:06:43;1.38;;;1.10;;
8683;SDS011;4379;59.744;18.206;2023-08-21T13:09:10;3.15;;;1.30;;
8683;SDS011;4379;59.744;18.206;2023-08-21T13:11:38;1.85;;;1.50;;
8683;SDS011;4379;59.744;18.206;2023-08-21T13:14:05;1.92;;;1.40;;
8683;SDS011;4379;59.744;18.206;2023-08-21T13:16:32;1.90;;;1.20;;
8683;SDS011;4379;59.744;18.206;2023-08-21T13:19:00;1.33;;;1.08;;
8683;SDS011;4379;59.744;18.206;2023-08-21T13:21:27;1.30;;;1.23;;
8683;SDS011;4379;59.744;18.206;2023-08-21T13:23:54;1.40;;;1.27;;
8683;SDS011;4379;59.744;18.206;2023-08-21T13:26:22;2.35;;;1.30;;
8683;SDS011;4379;59.744;18.206;2023-08-21T13:28:49;1.45;;;1.20;;
8683;SDS011;4379;59.744;18.206;2023-08-21T13:31:16;1.25;;;1.15;;
8683;SDS011;4379;59.744;18.206;2023-08-21T13:33:45;1.67;;;1.50;;
8683;SDS011;4379;59.744;18.206;2023-08-21T13:36:16;1.63;;;1.52;;
8683;SDS011;4379;59.744;18.206;2023-08-21T13:38:45;2.00;;;1.70;;
8683;SDS011;4379;59.744;18.206;2023-08-21T13:41:13;2.97;;;1.67;;
8683;SDS011;4379;59.744;18.206;2023-08-21T13:43:40;1.52;;;1.42;;
8683;SDS011;4379;59.744;18.206;2023-08-21T13:46:12;1.95;;;1.70;;
8683;SDS011;4379;59.744;18.206;2023-08-21T13:48:39;2.35;;;1.60;;
8683;SDS011;4379;59.744;18.206;2023-08-21T13:51:06;1.58;;;1.48;;
8683;SDS011;4379;59.744;18.206;2023-08-21T13:53:34;3.70;;;1.80;;
8683;SDS011;4379;59.744;18.206;2023-08-21T13:56:01;1.60;;;1.50;;
8683;SDS011;4379;59.744;18.206;2023-08-21T13:58:28;2.65;;;1.50;;
8683;SDS011;4379;59.744;18.206;2023-08-21T14:00:56;1.55;;;1.45;;
8683;SDS011;4379;59.744;18.206;2023-08-21T14:03:25;3.00;;;1.40;;
8683;SDS011;4379;59.744;18.206;2023-08-21T14:05:52;2.15;;;1.88;;
8683;SDS011;4379;59.744;18.206;2023-08-21T14:08:21;3.55;;;1.80;;
8683;SDS011;4379;59.744;18.206;2023-08-21T14:10:49;1.73;;;1.60;;
8683;SDS011;4379;59.744;18.206;2023-08-21T14:13:16;2.05;;;1.80;;
8683;SDS011;4379;59.744;18.206;2023-08-21T14:15:43;2.35;;;1.83;;
8683;SDS011;4379;59.744;18.206;2023-08-21T14:18:10;1.30;;;1.20;;
8683;SDS011;4379;59.744;18.206;2023-08-21T14:20:38;1.77;;;1.52;;
8683;SDS011;4379;59.744;18.206;2023-08-21T14:23:05;2.10;;;1.33;;
8683;SDS011;4379;59.744;18.206;2023-08-21T14:25:33;1.25;;;1.20;;
8683;SDS011;4379;59.744;18.206;2023-08-21T14:28:01;1.70;;;1.60;;
8683;SDS011;4379;59.744;18.206;2023-08-21T14:30:29;1.92;;;1.30;;
8683;SDS011;4379;59.744;18.206;2023-08-21T14:32:56;2.03;;;1.38;;
8683;SDS011;4379;59.744;18.206;2023-08-21T14:35:24;1.35;;;1.25;;
8683;SDS011;4379;59.744;18.206;2023-08-21T14:37:51;1.45;;;1.30;;
8683;SDS011;4379;59.744;18.206;2023-08-21T14:40:18;1.30;;;1.20;;
8683;SDS011;4379;59.744;18.206;2023-08-21T14:42:46;1.90;;;1.42;;
8683;SDS011;4379;59.744;18.206;2023-08-21T14:45:13;1.40;;;1.30;;
8683;SDS011;4379;59.744;18.206;2023-08-21T14:47:40;3.53;;;1.63;;
8683;SDS011;4379;59.744;18.206;2023-08-21T14:50:08;2.55;;;1.58;;
8683;SDS011;4379;59.744;18.206;2023-08-21T14:52:35;1.40;;;1.27;;
8683;SDS011;4379;59.744;18.206;2023-08-21T14:55:04;2.60;;;1.40;;
8683;SDS011;4379;59.744;18.206;2023-08-21T14:57:31;3.17;;;1.58;;
8683;SDS011;4379;59.744;18.206;2023-08-21T14:59:59;1.63;;;1.45;;
8683;SDS011;4379;59.744;18.206;2023-08-21T15:02:26;2.22;;;1.42;;
8683;SDS011;4379;59.744;18.206;2023-08-21T15:04:54;2.72;;;1.30;;
8683;SDS011;4379;59.744;18.206;2023-08-21T15:07:21;2.38;;;1.17;;
8683;SDS011;4379;59.744;18.206;2023-08-21T15:09:48;2.20;;;1.58;;
8683;SDS011;4379;59.744;18.206;2023-08-21T15:12:16;1.35;;;1.20;;
8683;SDS011;4379;59.744;18.206;2023-08-21T15:14:44;1.40;;;1.20;;
8683;SDS011;4379;59.744;18.206;2023-08-21T15:17:12;1.38;;;1.20;;
8683;SDS011;4379;59.744;18.206;2023-08-21T15:19:46;1.95;;;1.10;;
8683;SDS011;4379;59.744;18.206;2023-08-21T15:22:15;2.00;;;1.02;;